Time;durP1;ratioP1;P1;durP2;ratioP2;P2;SDS_P1;SDS_P2;PMS_P1;PMS_P2;Temp;Humidity;BMP_temperature;BMP_pressure;BME280_temperature;BME280_humidity;BME280_pressure;Samples;Min_cycle;Max_cycle;Signal;HPM_P1;HPM_P2
2023/01/01 00:01:11;;;;;;;48.13;22.67;;;13.20;99.90;;;;;;5040573;28;20106;-77
2023/01/01 00:03:38;;;;;;;52.20;25.20;;;13.20;99.90;;;;;;5047721;28;20021;-81
2023/01/01 00:06:09;;;;;;;53.22;27.38;;;13.20;99.90;;;;;;5042712;28;20355;-84
2023/01/01 00:08:35;;;;;;;57.35;29.98;;;13.30;99.90;;;;;;5048711;28;20029;-78
2023/01/01 00:11:02;;;;;;;52.92;27.42;;;13.20;99.90;;;;;;5045735;28;20032;-81
2023/01/01 00:13:28;;;;;;;55.25;27.13;;;13.20;99.90;;;;;;5040339;28;20084;-86
2023/01/01 00:15:53;;;;;;;55.67;29.10;;;13.20;99.90;;;;;;5041577;28;20056;-82
2023/01/01 00:18:19;;;;;;;63.83;30.83;;;13.30;99.90;;;;;;5040917;28;20060;-81
2023/01/01 00:20:45;;;;;;;58.73;29.93;;;13.30;99.90;;;;;;5048984;28;20032;-80
2023/01/01 00:23:11;;;;;;;56.07;28.80;;;13.30;99.90;;;;;;5048140;28;20100;-81
2023/01/01 00:25:39;;;;;;;62.35;31.00;;;13.30;99.90;;;;;;5045098;28;20110;-79
2023/01/01 00:28:06;;;;;;;50.65;26.77;;;13.40;99.90;;;;;;5039765;28;20032;-81
2023/01/01 00:30:32;;;;;;;44.05;25.63;;;13.40;99.90;;;;;;5040658;28;20317;-80
2023/01/01 00:32:57;;;;;;;45.00;24.00;;;13.40;99.90;;;;;;5040406;28;20041;-80
2023/01/01 00:35:24;;;;;;;40.40;20.10;;;13.50;99.90;;;;;;5039586;28;20042;-82
2023/01/01 00:37:50;;;;;;;45.65;18.15;;;13.50;99.90;;;;;;5043015;28;20435;-80
2023/01/01 00:40:15;;;;;;;40.53;18.57;;;13.50;99.90;;;;;;5039454;28;20064;-89
2023/01/01 00:42:41;;;;;;;41.77;18.00;;;13.50;99.90;;;;;;5040288;28;20034;-79
2023/01/01 00:45:07;;;;;;;34.50;16.47;;;13.60;99.90;;;;;;5042211;28;20316;-79
2023/01/01 00:47:33;;;;;;;41.53;15.35;;;13.50;99.90;;;;;;5040044;28;20457;-80
2023/01/01 00:49:59;;;;;;;25.47;12.93;;;13.50;99.90;;;;;;5042972;28;20123;-78
2023/01/01 00:52:24;;;;;;;26.73;11.10;;;13.60;99.90;;;;;;5043884;28;20103;-79
2023/01/01 00:54:50;;;;;;;25.37;11.17;;;13.60;99.90;;;;;;5037572;28;20332;-81
2023/01/01 00:57:16;;;;;;;35.33;12.03;;;13.60;99.90;;;;;;5041164;28;20324;-79
2023/01/01 00:59:41;;;;;;;23.17;10.00;;;13.60;99.90;;;;;;5039638;28;20048;-82
2023/01/01 01:02:07;;;;;;;21.67;10.13;;;13.70;99.90;;;;;;5042630;28;20037;-78
2023/01/01 01:04:32;;;;;;;27.57;10.70;;;13.70;99.90;;;;;;5050576;28;20061;-78
2023/01/01 01:06:58;;;;;;;22.30;9.93;;;13.60;99.90;;;;;;5045100;28;20044;-80
2023/01/01 01:09:24;;;;;;;26.70;9.87;;;13.60;99.90;;;;;;5047110;28;20408;-83
2023/01/01 01:11:49;;;;;;;16.80;8.63;;;13.50;99.90;;;;;;5040740;28;20104;-77
2023/01/01 01:14:15;;;;;;;17.87;7.77;;;13.50;99.90;;;;;;5048893;28;20029;-83
2023/01/01 01:16:41;;;;;;;23.40;8.73;;;13.50;99.90;;;;;;5039901;28;20491;-79
2023/01/01 01:19:08;;;;;;;20.53;8.83;;;13.40;99.90;;;;;;5045011;28;20022;-79
2023/01/01 01:21:34;;;;;;;17.27;7.95;;;13.40;99.90;;;;;;5048283;28;20101;-80
2023/01/01 01:24:02;;;;;;;23.40;7.90;;;13.50;99.90;;;;;;5039527;28;20033;-83
2023/01/01 01:26:32;;;;;;;18.98;8.30;;;13.40;99.90;;;;;;5042838;28;20033;-82
2023/01/01 01:28:59;;;;;;;20.75;7.15;;;13.40;99.90;;;;;;5042604;28;20048;-85
2023/01/01 01:31:28;;;;;;;14.43;5.72;;;13.40;99.90;;;;;;5039900;28;20037;-83
2023/01/01 01:33:54;;;;;;;18.98;7.05;;;13.40;99.90;;;;;;5036809;28;20033;-78
2023/01/01 01:36:19;;;;;;;21.57;6.70;;;13.40;99.90;;;;;;5051918;28;20036;-83
2023/01/01 01:38:46;;;;;;;14.67;6.53;;;13.50;99.90;;;;;;5048812;28;20029;-81
2023/01/01 01:41:18;;;;;;;12.25;5.95;;;13.50;99.90;;;;;;5050672;28;20309;-80
2023/01/01 01:44:02;;;;;;;15.80;5.88;;;13.50;99.90;;;;;;5050219;28;20040;-80
2023/01/01 01:46:32;;;;;;;23.33;6.72;;;13.50;99.90;;;;;;5034876;28;20112;-80
2023/01/01 01:49:02;;;;;;;17.70;6.00;;;13.40;99.90;;;;;;5045200;28;20028;-78
2023/01/01 01:51:37;;;;;;;12.88;4.80;;;13.40;99.90;;;;;;5044555;28;20041;-81
2023/01/01 01:54:08;;;;;;;13.75;5.10;;;13.40;99.90;;;;;;5053229;28;20044;-80
2023/01/01 01:56:48;;;;;;;13.25;4.45;;;13.30;99.90;;;;;;5046724;28;20412;-80
2023/01/01 01:59:15;;;;;;;12.15;4.47;;;13.40;99.90;;;;;;5048413;28;20040;-82
2023/01/01 02:01:41;;;;;;;11.27;4.15;;;13.40;99.90;;;;;;5040541;28;20029;-80
2023/01/01 02:04:06;;;;;;;12.93;4.27;;;13.40;99.90;;;;;;5048638;28;20322;-81
2023/01/01 02:06:34;;;;;;;17.97;4.17;;;13.40;99.90;;;;;;5037124;28;20041;-81
2023/01/01 02:09:03;;;;;;;12.55;5.32;;;13.40;99.90;;;;;;5048073;28;20460;-79
2023/01/01 02:11:30;;;;;;;8.48;3.97;;;13.40;99.90;;;;;;5042901;28;20037;-78
2023/01/01 02:13:56;;;;;;;11.18;4.53;;;13.50;99.90;;;;;;5045605;28;20080;-83
2023/01/01 02:16:41;;;;;;;10.13;3.17;;;13.50;99.90;;;;;;5043832;28;20029;-81
2023/01/01 02:19:24;;;;;;;11.07;3.80;;;13.50;99.90;;;;;;5037768;28;20415;-85
2023/01/01 02:22:15;;;;;;;10.80;2.90;;;13.50;99.90;;;;;;5047762;28;20452;-82
2023/01/01 02:24:51;;;;;;;12.35;3.22;;;13.50;99.90;;;;;;5033177;28;20014;-79
2023/01/01 02:27:45;;;;;;;7.00;2.83;;;13.50;99.90;;;;;;5049178;28;20028;-84
2023/01/01 02:30:11;;;;;;;8.75;2.70;;;13.50;99.90;;;;;;5039427;28;20031;-83
2023/01/01 02:32:42;;;;;;;7.80;2.75;;;13.50;99.90;;;;;;5047732;28;20435;-83
2023/01/01 02:35:35;;;;;;;11.80;2.63;;;13.40;99.90;;;;;;5039786;28;20034;-82
2023/01/01 02:38:29;;;;;;;11.90;2.92;;;13.40;99.90;;;;;;5041362;28;20029;-83
2023/01/01 02:41:02;;;;;;;10.00;2.50;;;13.50;99.90;;;;;;5037202;28;20053;-82
2023/01/01 02:43:28;;;;;;;5.28;2.58;;;13.50;99.90;;;;;;5048292;28;20367;-83
2023/01/01 02:45:54;;;;;;;11.07;2.60;;;13.50;99.90;;;;;;5046077;28;20033;-79
2023/01/01 02:48:46;;;;;;;8.63;2.60;;;13.40;99.90;;;;;;5042572;28;20017;-82
2023/01/01 02:51:27;;;;;;;7.18;2.15;;;13.40;99.90;;;;;;5046688;28;20250;-84
2023/01/01 02:54:02;;;;;;;10.77;2.10;;;13.40;99.90;;;;;;5046223;28;20021;-79
2023/01/01 02:57:06;;;;;;;8.70;2.20;;;13.40;99.90;;;;;;5041576;28;20017;-84
2023/01/01 03:00:18;;;;;;;10.80;2.10;;;13.30;99.90;;;;;;5021592;28;20033;-80
2023/01/01 03:03:07;;;;;;;10.13;2.67;;;13.30;99.90;;;;;;5049440;28;20044;-83
2023/01/01 03:08:41;;;;;;;8.40;2.25;;;13.30;99.90;;;;;;5043801;28;20052;-81
2023/01/01 03:11:09;;;;;;;;;;;13.30;99.90;;;;;;5045416;28;20083;-80
2023/01/01 03:13:51;;;;;;;7.20;2.15;;;13.30;99.90;;;;;;5051743;28;19955;-81
2023/01/01 03:16:39;;;;;;;5.70;1.50;;;13.40;99.90;;;;;;5046174;28;20052;-78
2023/01/01 03:19:15;;;;;;;6.75;2.30;;;13.30;99.90;;;;;;5039855;28;20076;-79
2023/01/01 03:21:44;;;;;;;3.50;2.00;;;13.30;99.90;;;;;;5038386;28;20026;-81
2023/01/01 03:24:15;;;;;;;8.90;2.50;;;13.30;99.90;;;;;;5042323;28;20020;-79
2023/01/01 03:26:44;;;;;;;10.07;2.05;;;13.30;99.90;;;;;;5046419;28;20363;-81
2023/01/01 03:29:12;;;;;;;8.05;2.00;;;13.30;99.90;;;;;;5042378;28;20026;-79
2023/01/01 03:31:42;;;;;;;4.05;1.42;;;13.30;99.90;;;;;;5039952;28;20423;-78
2023/01/01 03:34:15;;;;;;;10.65;2.53;;;13.30;99.90;;;;;;5045679;28;20056;-81
2023/01/01 03:36:46;;;;;;;7.22;2.13;;;13.30;99.90;;;;;;5037240;28;20049;-79
2023/01/01 03:39:20;;;;;;;8.45;2.40;;;13.20;99.90;;;;;;5044754;28;20040;-78
2023/01/01 03:41:59;;;;;;;9.32;1.88;;;13.20;99.90;;;;;;5038691;28;20029;-81
2023/01/01 03:44:32;;;;;;;9.18;1.90;;;13.30;99.90;;;;;;5050500;28;20420;-80
2023/01/01 03:46:59;;;;;;;12.90;2.05;;;13.30;99.90;;;;;;5046712;28;20028;-81
2023/01/01 03:49:25;;;;;;;5.43;1.70;;;13.40;99.90;;;;;;5044787;28;20036;-81
2023/01/01 03:52:41;;;;;;;6.72;1.88;;;13.40;99.90;;;;;;5041545;28;20136;-86
2023/01/01 03:55:18;;;;;;;14.80;1.92;;;13.40;99.90;;;;;;5038062;28;20111;-83
2023/01/01 03:57:52;;;;;;;4.22;1.77;;;13.30;99.90;;;;;;5048942;28;20087;-84
2023/01/01 04:00:26;;;;;;;5.90;1.40;;;13.40;99.90;;;;;;5048534;28;20033;-83
2023/01/01 04:03:21;;;;;;;6.32;1.27;;;13.30;99.90;;;;;;5042322;28;20052;-81
2023/01/01 04:05:47;;;;;;;9.18;1.90;;;13.30;99.90;;;;;;5030786;28;20038;-79
2023/01/01 04:08:14;;;;;;;8.43;1.90;;;13.40;99.90;;;;;;5043227;28;20020;-81
2023/01/01 04:10:49;;;;;;;;;;;13.30;99.90;;;;;;5049157;28;20615;-82
2023/01/01 04:13:15;;;;;;;8.10;1.55;;;13.30;99.90;;;;;;5049624;28;19959;-82
2023/01/01 04:15:41;;;;;;;4.00;1.33;;;13.30;99.90;;;;;;5047688;28;20037;-79
2023/01/01 04:18:08;;;;;;;9.77;1.80;;;13.30;99.90;;;;;;5055315;28;20408;-79
2023/01/01 04:20:33;;;;;;;9.90;2.15;;;13.20;99.90;;;;;;5055925;28;20474;-79
2023/01/01 04:23:00;;;;;;;4.27;0.90;;;13.20;99.90;;;;;;5053808;28;20068;-80
2023/01/01 04:25:27;;;;;;;6.15;1.25;;;13.20;99.90;;;;;;5045131;28;20021;-78
2023/01/01 04:27:53;;;;;;;7.95;0.85;;;13.20;99.90;;;;;;5048615;28;20029;-81
2023/01/01 04:30:19;;;;;;;4.85;1.33;;;13.10;99.90;;;;;;5037954;28;20025;-83
2023/01/01 04:32:45;;;;;;;5.87;1.13;;;13.10;99.90;;;;;;5037477;28;20438;-81
2023/01/01 04:35:12;;;;;;;6.10;1.10;;;13.00;99.90;;;;;;5047680;28;20367;-81
2023/01/01 04:37:40;;;;;;;4.85;0.95;;;13.00;99.90;;;;;;5043007;28;20060;-82
2023/01/01 04:40:07;;;;;;;3.35;0.82;;;13.00;99.90;;;;;;5039584;28;20047;-77
2023/01/01 04:42:32;;;;;;;;;;;12.90;99.90;;;;;;5043272;28;20036;-79
2023/01/01 04:44:58;;;;;;;2.30;0.87;;;12.90;99.90;;;;;;5048158;28;19905;-80
2023/01/01 04:47:25;;;;;;;4.83;1.37;;;12.80;99.90;;;;;;5044014;28;20021;-77
2023/01/01 04:49:54;;;;;;;4.70;0.93;;;12.80;99.90;;;;;;5037074;28;20416;-78
2023/01/01 04:52:20;;;;;;;1.67;1.10;;;12.80;99.90;;;;;;5043241;28;20076;-83
2023/01/01 04:54:46;;;;;;;6.68;1.10;;;12.70;99.90;;;;;;5041831;28;20025;-77
2023/01/01 04:57:12;;;;;;;1.60;0.80;;;12.70;99.90;;;;;;5051366;28;20036;-79
2023/01/01 04:59:38;;;;;;;11.15;1.52;;;12.60;99.90;;;;;;5049217;28;20094;-81
2023/01/01 05:02:03;;;;;;;4.07;0.73;;;12.60;99.90;;;;;;5044441;28;20427;-80
2023/01/01 05:04:29;;;;;;;8.50;1.30;;;12.60;99.90;;;;;;5037999;28;20079;-79
2023/01/01 05:06:55;;;;;;;9.43;1.17;;;12.60;99.90;;;;;;5038558;28;20029;-78
2023/01/01 05:09:20;;;;;;;9.53;1.73;;;12.50;99.90;;;;;;5042445;28;20021;-81
2023/01/01 05:11:46;;;;;;;12.97;2.13;;;12.50;99.90;;;;;;5049416;28;20028;-79
2023/01/01 05:14:12;;;;;;;8.90;1.70;;;12.50;99.90;;;;;;5046356;28;20033;-78
2023/01/01 05:16:39;;;;;;;7.80;1.20;;;12.40;99.90;;;;;;5041744;28;20289;-77
2023/01/01 05:19:06;;;;;;;8.80;1.65;;;12.40;99.90;;;;;;5039102;28;20071;-79
2023/01/01 05:21:34;;;;;;;5.38;1.00;;;12.40;99.90;;;;;;5039652;28;20098;-79
2023/01/01 05:24:02;;;;;;;5.43;1.00;;;12.30;99.90;;;;;;5043178;28;20025;-79
2023/01/01 05:26:32;;;;;;;11.88;1.50;;;12.30;99.90;;;;;;5041641;28;20476;-78
2023/01/01 05:28:59;;;;;;;11.70;1.92;;;12.30;99.90;;;;;;5037944;28;20030;-79
2023/01/01 05:31:30;;;;;;;8.13;1.42;;;12.30;99.90;;;;;;5042765;28;20028;-82
2023/01/01 05:33:56;;;;;;;10.30;2.22;;;12.30;99.90;;;;;;5042998;28;20104;-80
2023/01/01 05:36:30;;;;;;;5.90;1.15;;;12.30;99.90;;;;;;5042496;28;20044;-80
2023/01/01 05:38:56;;;;;;;14.75;1.58;;;12.20;99.90;;;;;;5041806;28;20090;-77
2023/01/01 05:41:22;;;;;;;10.75;1.65;;;12.30;99.90;;;;;;5040045;28;20022;-82
2023/01/01 05:43:50;;;;;;;2.95;1.20;;;12.20;99.90;;;;;;5051238;28;20324;-82
2023/01/01 05:46:18;;;;;;;7.85;1.75;;;12.20;99.90;;;;;;5045652;28;20072;-78
2023/01/01 05:48:44;;;;;;;12.60;1.83;;;12.20;99.90;;;;;;5045608;28;20025;-78
2023/01/01 05:51:21;;;;;;;6.18;1.65;;;12.10;99.90;;;;;;5042887;28;20032;-79
2023/01/01 05:53:47;;;;;;;11.48;1.50;;;12.10;99.90;;;;;;5039850;28;20033;-79
2023/01/01 05:56:15;;;;;;;8.33;2.23;;;12.10;99.90;;;;;;5034490;28;20037;-81
2023/01/01 05:58:41;;;;;;;13.68;1.30;;;12.10;99.90;;;;;;5035724;28;20018;-79
2023/01/01 06:01:12;;;;;;;11.82;2.08;;;12.10;99.90;;;;;;5036889;28;20026;-81
2023/01/01 06:03:39;;;;;;;12.20;1.42;;;12.10;99.90;;;;;;5039449;28;20040;-81
2023/01/01 06:06:06;;;;;;;6.90;1.48;;;12.10;99.90;;;;;;5036281;28;20399;-80
2023/01/01 06:08:32;;;;;;;7.65;1.67;;;12.10;99.90;;;;;;5044148;28;20469;-77
2023/01/01 06:11:03;;;;;;;19.20;2.33;;;12.00;99.90;;;;;;5046902;28;20025;-79
2023/01/01 06:13:29;;;;;;;9.90;1.63;;;12.00;99.90;;;;;;5046086;28;20025;-78
2023/01/01 06:15:57;;;;;;;10.87;1.80;;;12.00;99.90;;;;;;5045863;28;20037;-80
2023/01/01 06:18:23;;;;;;;13.63;2.28;;;12.00;99.90;;;;;;5040425;28;20262;-81
2023/01/01 06:20:49;;;;;;;18.38;2.05;;;11.90;99.90;;;;;;5042607;28;20091;-79
2023/01/01 06:23:15;;;;;;;9.40;2.07;;;12.00;99.90;;;;;;5041598;28;21792;-81
2023/01/01 06:25:40;;;;;;;15.10;1.90;;;11.90;99.90;;;;;;5042582;28;20040;-80
2023/01/01 06:28:06;;;;;;;7.23;1.80;;;11.90;99.90;;;;;;5047218;28;20104;-79
2023/01/01 06:30:33;;;;;;;14.80;1.63;;;11.90;99.90;;;;;;5043791;28;20036;-81
2023/01/01 06:32:59;;;;;;;13.10;3.03;;;11.90;99.90;;;;;;5049996;28;20041;-80
2023/01/01 06:35:26;;;;;;;9.85;1.77;;;11.90;99.90;;;;;;5047250;28;20037;-79
2023/01/01 06:37:52;;;;;;;16.33;1.77;;;11.90;99.90;;;;;;5039656;28;20025;-79
2023/01/01 06:40:18;;;;;;;10.30;1.70;;;11.90;99.90;;;;;;5037687;28;20525;-79
2023/01/01 06:42:44;;;;;;;11.80;1.87;;;11.90;99.90;;;;;;5052612;28;20040;-80
2023/01/01 06:45:10;;;;;;;17.17;1.87;;;11.90;99.90;;;;;;5042774;28;20026;-80
2023/01/01 06:47:36;;;;;;;17.75;1.80;;;11.80;99.90;;;;;;5046936;28;20047;-77
2023/01/01 06:50:03;;;;;;;15.00;1.33;;;11.80;99.90;;;;;;5049575;28;20025;-76
2023/01/01 06:52:28;;;;;;;13.05;2.40;;;11.80;99.90;;;;;;5049295;28;20051;-79
2023/01/01 06:54:54;;;;;;;11.53;1.60;;;11.70;99.90;;;;;;5047041;28;20132;-79
2023/01/01 06:57:20;;;;;;;13.03;1.83;;;11.70;99.90;;;;;;5050306;28;20028;-78
2023/01/01 06:59:46;;;;;;;11.60;1.93;;;11.70;99.90;;;;;;5049633;28;20021;-78
2023/01/01 07:02:11;;;;;;;11.33;1.73;;;11.70;99.90;;;;;;5046593;28;20020;-81
2023/01/01 07:04:37;;;;;;;7.03;1.87;;;11.70;99.90;;;;;;5050910;28;20014;-80
2023/01/01 07:07:04;;;;;;;6.13;1.60;;;11.70;99.90;;;;;;5030554;28;20355;-78
2023/01/01 07:09:29;;;;;;;13.37;1.77;;;11.70;99.90;;;;;;5047080;28;20270;-80
2023/01/01 07:11:55;;;;;;;15.17;1.97;;;11.70;99.90;;;;;;5052995;28;20346;-82
2023/01/01 07:14:20;;;;;;;8.90;1.73;;;11.70;99.90;;;;;;5046264;28;20048;-80
2023/01/01 07:16:46;;;;;;;10.23;1.43;;;11.60;99.90;;;;;;5046732;28;20033;-78
2023/01/01 07:19:12;;;;;;;12.03;1.93;;;11.60;99.90;;;;;;5031470;28;20068;-81
2023/01/01 07:22:03;;;;;;;9.10;1.63;;;11.60;99.90;;;;;;5050484;28;20037;-81
2023/01/01 07:24:29;;;;;;;10.38;1.67;;;11.60;99.90;;;;;;5039314;28;20045;-80
2023/01/01 07:26:55;;;;;;;16.67;2.30;;;11.60;99.90;;;;;;5042872;28;20041;-78
2023/01/01 07:29:20;;;;;;;13.27;1.70;;;11.50;99.90;;;;;;5057857;28;20432;-79
2023/01/01 07:31:46;;;;;;;13.10;1.83;;;11.50;99.90;;;;;;5034520;28;20034;-82
2023/01/01 07:34:14;;;;;;;8.77;1.50;;;11.50;99.90;;;;;;5048064;28;20032;-81
2023/01/01 07:36:40;;;;;;;16.20;2.25;;;11.50;99.90;;;;;;5041939;28;20033;-80
2023/01/01 07:39:06;;;;;;;12.00;2.92;;;11.40;99.90;;;;;;5036665;28;20022;-79
2023/01/01 07:41:32;;;;;;;18.73;2.03;;;11.40;99.90;;;;;;5036316;28;20777;-79
2023/01/01 07:43:57;;;;;;;7.67;1.97;;;11.40;99.90;;;;;;5049870;28;20370;-79
2023/01/01 07:46:23;;;;;;;16.43;1.80;;;11.40;99.90;;;;;;5049636;28;20026;-79
2023/01/01 07:48:49;;;;;;;13.13;1.77;;;11.40;99.90;;;;;;5046558;28;20038;-78
2023/01/01 07:51:14;;;;;;;15.70;2.37;;;11.40;99.90;;;;;;5050825;28;20059;-79
2023/01/01 07:53:40;;;;;;;16.07;2.17;;;11.40;99.90;;;;;;5052965;28;20040;-78
2023/01/01 07:56:06;;;;;;;12.70;1.77;;;11.30;99.90;;;;;;5049691;28;20029;-80
2023/01/01 07:58:32;;;;;;;10.45;1.98;;;11.30;99.90;;;;;;5048039;28;20040;-79
2023/01/01 08:00:58;;;;;;;11.77;2.13;;;11.30;99.90;;;;;;5047348;28;20371;-79
2023/01/01 08:03:23;;;;;;;18.20;2.57;;;11.30;99.90;;;;;;5046060;28;20108;-80
2023/01/01 08:05:49;;;;;;;22.00;1.90;;;11.30;99.90;;;;;;5052045;28;20033;-82
2023/01/01 08:08:14;;;;;;;6.47;1.67;;;11.20;99.90;;;;;;5041143;28;20086;-80
2023/01/01 08:10:40;;;;;;;11.10;1.67;;;11.20;99.90;;;;;;5048509;28;20025;-79
2023/01/01 08:13:07;;;;;;;16.37;2.40;;;11.20;99.90;;;;;;5041119;28;20022;-79
2023/01/01 08:15:33;;;;;;;;;;;11.20;99.90;;;;;;5044141;28;20025;-81
2023/01/01 08:18:00;;;;;;;16.67;2.13;;;11.20;99.90;;;;;;5043868;28;20207;-79
2023/01/01 08:20:28;;;;;;;14.30;2.22;;;11.20;99.90;;;;;;5047082;28;20025;-79
2023/01/01 08:22:53;;;;;;;17.13;2.20;;;11.10;99.90;;;;;;5044593;28;20078;-78
2023/01/01 08:25:20;;;;;;;15.60;2.63;;;11.10;99.90;;;;;;5040673;28;20100;-76
2023/01/01 08:27:45;;;;;;;12.52;1.98;;;11.20;99.90;;;;;;5049900;28;20031;-81
2023/01/01 08:30:13;;;;;;;14.90;1.97;;;11.20;99.90;;;;;;5048553;28;20028;-80
2023/01/01 08:32:38;;;;;;;19.00;2.20;;;11.20;99.90;;;;;;5040504;28;20055;-80
2023/01/01 08:35:04;;;;;;;10.97;1.47;;;11.20;99.90;;;;;;5048837;28;20430;-80
2023/01/01 08:37:30;;;;;;;24.38;2.42;;;11.10;99.90;;;;;;5048394;28;20021;-78
2023/01/01 08:39:56;;;;;;;12.03;1.47;;;11.10;99.90;;;;;;5046457;28;20033;-78
2023/01/01 08:42:21;;;;;;;12.87;1.57;;;11.10;99.90;;;;;;5041541;28;20108;-81
2023/01/01 08:44:47;;;;;;;30.10;2.87;;;11.00;99.90;;;;;;5044741;28;20029;-81
2023/01/01 08:47:22;;;;;;;13.60;1.40;;;11.00;99.90;;;;;;5038939;28;20022;-79
2023/01/01 08:49:48;;;;;;;11.30;1.90;;;11.00;99.90;;;;;;5037253;28;20033;-79
2023/01/01 08:52:14;;;;;;;16.00;2.60;;;11.00;99.90;;;;;;5038523;28;20129;-78
2023/01/01 08:54:40;;;;;;;8.37;1.97;;;10.90;99.90;;;;;;5043053;28;20431;-78
2023/01/01 08:57:05;;;;;;;16.23;1.70;;;11.00;99.90;;;;;;5048380;28;20037;-79
2023/01/01 08:59:31;;;;;;;10.47;1.70;;;11.00;99.90;;;;;;5045716;28;20024;-79
2023/01/01 09:01:58;;;;;;;17.20;1.80;;;11.00;99.90;;;;;;5046131;28;20031;-78
2023/01/01 09:04:24;;;;;;;17.65;1.98;;;11.00;99.90;;;;;;5046397;28;20030;-80
2023/01/01 09:06:50;;;;;;;10.20;2.07;;;11.00;99.90;;;;;;5042532;28;20080;-80
2023/01/01 09:09:16;;;;;;;11.23;1.77;;;11.00;99.90;;;;;;5049877;28;20040;-80
2023/01/01 09:11:50;;;;;;;11.77;1.97;;;11.10;99.90;;;;;;5053017;28;20056;-79
2023/01/01 09:14:16;;;;;;;13.60;1.67;;;11.10;99.90;;;;;;5044061;28;20024;-81
2023/01/01 09:16:41;;;;;;;8.57;1.53;;;11.10;99.90;;;;;;5038902;28;20036;-80
2023/01/01 09:19:07;;;;;;;9.87;1.87;;;11.10;99.90;;;;;;5045599;28;20025;-80
2023/01/01 09:21:33;;;;;;;10.23;1.37;;;11.20;99.90;;;;;;5039012;28;20107;-79
2023/01/01 09:23:58;;;;;;;7.23;1.57;;;11.20;99.90;;;;;;5040625;28;20060;-80
2023/01/01 09:26:24;;;;;;;6.60;1.43;;;11.20;99.90;;;;;;5044255;28;20025;-83
2023/01/01 09:28:50;;;;;;;4.67;1.17;;;11.20;99.90;;;;;;5042353;28;20025;-81
2023/01/01 09:31:15;;;;;;;7.53;1.20;;;11.20;99.90;;;;;;5045220;28;20159;-79
2023/01/01 09:33:41;;;;;;;11.90;1.50;;;11.30;99.90;;;;;;5046441;28;20427;-80
2023/01/01 09:36:27;;;;;;;4.33;1.07;;;11.30;99.90;;;;;;5042784;28;20297;-80
2023/01/01 09:38:53;;;;;;;14.07;1.15;;;11.30;99.90;;;;;;5042538;28;20104;-81
2023/01/01 09:41:47;;;;;;;9.23;1.50;;;11.40;99.90;;;;;;5045318;28;20041;-79
2023/01/01 09:44:33;;;;;;;11.20;1.70;;;11.40;99.90;;;;;;5045454;28;20038;-80
2023/01/01 09:47:02;;;;;;;10.50;1.83;;;11.40;99.90;;;;;;5041622;28;20049;-81
2023/01/01 09:49:38;;;;;;;13.45;1.42;;;11.40;99.90;;;;;;5036657;28;20108;-82
2023/01/01 09:52:04;;;;;;;16.15;1.90;;;11.40;99.90;;;;;;5044496;28;20048;-80
2023/01/01 09:54:58;;;;;;;9.95;1.15;;;11.40;99.90;;;;;;5044672;28;20376;-79
2023/01/01 09:57:30;;;;;;;9.38;1.30;;;11.40;99.90;;;;;;5043788;28;20049;-81
2023/01/01 10:00:01;;;;;;;9.30;1.17;;;11.40;99.90;;;;;;5052075;28;20037;-78
2023/01/01 10:02:47;;;;;;;9.38;1.27;;;11.40;99.90;;;;;;5047010;28;20021;-82
2023/01/01 10:05:31;;;;;;;11.13;1.55;;;11.50;99.90;;;;;;5043703;28;20061;-78
2023/01/01 10:08:08;;;;;;;6.55;1.20;;;11.50;99.90;;;;;;5043009;28;20029;-80
2023/01/01 10:10:51;;;;;;;6.18;0.93;;;11.50;99.90;;;;;;5045194;28;20416;-80
2023/01/01 10:13:33;;;;;;;10.75;1.30;;;11.50;99.90;;;;;;5052251;28;20025;-81
2023/01/01 10:16:09;;;;;;;10.88;1.50;;;11.60;99.90;;;;;;5049726;28;20390;-80
2023/01/01 10:18:37;;;;;;;6.93;1.40;;;11.50;99.90;;;;;;5051764;28;20051;-80
2023/01/01 10:21:20;;;;;;;10.10;1.30;;;11.60;99.90;;;;;;5049109;28;20025;-82
2023/01/01 10:23:55;;;;;;;10.88;2.15;;;11.60;99.90;;;;;;5047171;28;20507;-81
2023/01/01 10:26:25;;;;;;;15.38;2.28;;;11.60;99.90;;;;;;5047454;28;20087;-81
2023/01/01 10:29:08;;;;;;;6.97;1.88;;;11.60;99.90;;;;;;5048452;28;20054;-81
2023/01/01 10:31:41;;;;;;;12.20;1.55;;;11.70;99.90;;;;;;5053646;28;20028;-81
2023/01/01 10:34:26;;;;;;;7.70;1.00;;;11.70;99.90;;;;;;5051257;28;20022;-82
2023/01/01 10:36:54;;;;;;;11.57;1.77;;;11.70;99.90;;;;;;5051047;28;20029;-81
2023/01/01 10:39:20;;;;;;;7.25;1.10;;;11.70;99.90;;;;;;5051909;28;20036;-81
2023/01/01 10:41:46;;;;;;;13.87;2.03;;;11.80;99.90;;;;;;5049314;28;20025;-81
2023/01/01 10:44:15;;;;;;;8.00;1.40;;;11.80;99.90;;;;;;5049333;28;20087;-81
2023/01/01 10:46:47;;;;;;;9.57;1.55;;;11.90;99.90;;;;;;5050434;28;20083;-81
2023/01/01 10:49:15;;;;;;;7.72;1.30;;;11.90;99.90;;;;;;5049723;28;20147;-80
2023/01/01 10:51:52;;;;;;;2.65;1.27;;;12.10;99.90;;;;;;5046882;28;20045;-80
2023/01/01 10:54:39;;;;;;;10.50;1.73;;;12.20;99.90;;;;;;5050811;28;20021;-81
2023/01/01 10:57:36;;;;;;;10.95;1.60;;;12.30;99.90;;;;;;5050292;28;20033;-79
2023/01/01 11:00:18;;;;;;;11.45;1.63;;;12.30;99.90;;;;;;5052019;28;20420;-81
2023/01/01 11:02:43;;;;;;;12.60;1.50;;;12.30;99.90;;;;;;5047602;28;20025;-81
2023/01/01 11:05:20;;;;;;;7.07;1.47;;;12.30;99.90;;;;;;5044282;28;20029;-79
2023/01/01 11:07:46;;;;;;;10.32;1.40;;;12.30;99.90;;;;;;5035678;28;20032;-78
2023/01/01 11:10:30;;;;;;;6.70;1.75;;;12.30;99.90;;;;;;5045652;28;20024;-81
2023/01/01 11:12:56;;;;;;;9.68;1.90;;;12.30;99.90;;;;;;5051326;28;20037;-81
2023/01/01 11:15:35;;;;;;;6.70;1.43;;;12.20;99.90;;;;;;5047412;28;20332;-78
2023/01/01 11:18:13;;;;;;;4.45;1.13;;;12.20;99.90;;;;;;5044390;28;20036;-81
2023/01/01 11:20:39;;;;;;;11.10;1.42;;;12.20;99.90;;;;;;5055700;28;20033;-79
2023/01/01 11:23:32;;;;;;;9.90;1.60;;;12.20;99.90;;;;;;5043669;28;20462;-79
2023/01/01 11:26:16;;;;;;;12.35;1.98;;;12.30;99.90;;;;;;5037046;28;20709;-79
2023/01/01 11:28:58;;;;;;;13.30;2.17;;;12.40;99.90;;;;;;5037664;28;20020;-80
2023/01/01 11:31:38;;;;;;;11.45;1.60;;;12.40;99.90;;;;;;5037484;28;20079;-81
2023/01/01 11:34:16;;;;;;;9.45;1.80;;;12.40;99.90;;;;;;5039296;28;20028;-80
2023/01/01 11:36:42;;;;;;;8.80;1.90;;;12.30;99.90;;;;;;5043602;28;20025;-79
2023/01/01 11:39:25;;;;;;;9.07;1.50;;;12.30;99.90;;;;;;5045194;28;20468;-81
2023/01/01 11:41:55;;;;;;;11.23;2.83;;;12.20;99.90;;;;;;5039406;28;20033;-79
2023/01/01 11:44:35;;;;;;;14.98;1.70;;;12.20;99.90;;;;;;5044227;28;20037;-78
2023/01/01 11:47:03;;;;;;;7.05;1.20;;;12.10;99.90;;;;;;5043618;28;20027;-76
2023/01/01 11:49:29;;;;;;;7.65;1.60;;;12.10;99.90;;;;;;5036636;28;20029;-79
2023/01/01 11:51:57;;;;;;;11.68;1.77;;;12.20;99.90;;;;;;5040195;28;20174;-78
2023/01/01 11:54:27;;;;;;;5.78;1.13;;;12.20;99.90;;;;;;5037024;28;20061;-77
2023/01/01 11:56:57;;;;;;;11.00;2.17;;;12.20;99.90;;;;;;5043750;28;20041;-81
2023/01/01 11:59:29;;;;;;;11.57;1.40;;;12.30;99.90;;;;;;5044492;28;20025;-77
2023/01/01 12:01:59;;;;;;;11.07;2.05;;;12.30;99.90;;;;;;5045522;28;20056;-77
2023/01/01 12:04:42;;;;;;;12.57;1.85;;;12.30;99.90;;;;;;5046162;28;20044;-77
2023/01/01 12:07:20;;;;;;;12.60;2.65;;;12.20;99.90;;;;;;5049637;28;20033;-80
2023/01/01 12:10:00;;;;;;;7.35;1.90;;;12.20;99.90;;;;;;5064703;28;20378;-77
2023/01/01 12:12:49;;;;;;;7.50;1.65;;;12.20;99.90;;;;;;5045931;28;20434;-77
2023/01/01 12:15:37;;;;;;;11.07;2.05;;;12.30;99.90;;;;;;5044444;28;20064;-78
2023/01/01 12:18:25;;;;;;;9.52;2.20;;;12.20;99.90;;;;;;5041344;28;20032;-79
2023/01/01 12:21:02;;;;;;;10.18;2.10;;;12.20;99.90;;;;;;5053389;28;20059;-76
2023/01/01 12:23:28;;;;;;;7.20;1.33;;;12.20;99.90;;;;;;5046018;28;20036;-78
2023/01/01 12:26:10;;;;;;;11.30;1.48;;;12.20;99.90;;;;;;5047530;28;20025;-77
2023/01/01 12:28:38;;;;;;;9.93;1.65;;;12.10;99.90;;;;;;5039989;28;20105;-76
2023/01/01 12:31:24;;;;;;;6.97;1.50;;;12.10;99.90;;;;;;5048055;28;20455;-77
2023/01/01 12:34:15;;;;;;;11.52;1.65;;;12.10;99.90;;;;;;5041766;28;20036;-77
2023/01/01 12:37:19;;;;;;;6.57;1.30;;;12.10;99.90;;;;;;5046365;28;20057;-78
2023/01/01 12:40:00;;;;;;;10.07;1.55;;;12.10;99.90;;;;;;5048590;28;20033;-78
2023/01/01 12:42:26;;;;;;;7.47;1.92;;;12.10;99.90;;;;;;5053595;28;20312;-78
2023/01/01 12:45:09;;;;;;;12.40;1.77;;;12.10;99.90;;;;;;5051359;28;20024;-77
2023/01/01 12:47:35;;;;;;;12.38;2.45;;;12.10;99.90;;;;;;5046916;28;20412;-76
2023/01/01 12:50:17;;;;;;;16.97;1.83;;;12.10;99.90;;;;;;5049560;28;20059;-78
2023/01/01 12:52:42;;;;;;;8.63;2.03;;;12.00;99.90;;;;;;5040316;28;20099;-77
2023/01/01 12:55:35;;;;;;;15.17;1.77;;;12.10;99.90;;;;;;5048300;28;20028;-77
2023/01/01 12:58:04;;;;;;;11.07;2.05;;;12.00;99.90;;;;;;5044553;28;20032;-77
2023/01/01 13:00:31;;;;;;;9.98;1.98;;;12.10;99.90;;;;;;5047589;28;20440;-79
2023/01/01 13:02:59;;;;;;;;;;;12.10;99.90;;;;;;5040918;28;20061;-78